SAWG

Piloto Civil N. Fernández Airport

Airport
ICAO code
SAWG
IATA Code
RGL
Summary
ICAO Region
CARSAM
ICAO Territory
Location

Rio Gallegos, Santa Cruz

Serving
Rio Gallegos
Elevation
61 ft
Coordinates
51° 36' 32" S , 69° 18' 45" W
KCC
Metar
SAWG 222300Z 26019KT CAVOK 05/M01 Q1001

Airport 2.5km west of Rio Gallegos, Santa Cruz Province, Argentina

Climatology

Cold semi-arid climate (Köppen climate classification BSk).

Runways

Designator Length Width Surface Rops
7/25 3549 45 CON Yes/Yes

Airport map

Aerial View

SKYbrary Partners:

Safety knowledge contributed by: